Kotor-Varos, Bosnia and Herzegovina
Current Conditions -  °F | °C
As of 2:00 PM on Thursday 30 Oct 2014 (Local Time) from LQBK Reporting Station
Few Clouds Few Clouds  
Wind Chill: 52°   Ceiling: Unl
Heat Index: 52°   Visibility: 6mi
Dew Point: 41°   Wind: 2mph
Humidity: 67%   Direction: 290°WNW
Pressure: 30.27"   Gusts: NA
Location:  44.62°N, 17.37°E
Report Text: LQBK 301200Z 29002KT 9999 FEW025 11/05 Q1025 NOSIG
Loading
Personal Weather Stations






























Interactive Weather Map
Tropical Storm Tracking
New forecast layout! Learn more

10-Day Weather Forecast

Advertisements
Track Severe Weather on mobile